sensor_id;sensor_type;location;lat;lon;timestamp;P1;durP1;ratioP1;P2;durP2;ratioP2
63975;SDS011;50167;47.958;21.780;2023-08-30T00:01:16;11.60;;;6.92;;
63975;SDS011;50167;47.958;21.780;2023-08-30T00:03:42;7.95;;;6.30;;
63975;SDS011;50167;47.958;21.780;2023-08-30T00:06:09;12.05;;;6.35;;
63975;SDS011;50167;47.958;21.780;2023-08-30T00:08:35;10.13;;;5.53;;
63975;SDS011;50167;47.958;21.780;2023-08-30T00:11:01;7.42;;;5.55;;
63975;SDS011;50167;47.958;21.780;2023-08-30T00:13:30;9.53;;;5.33;;
63975;SDS011;50167;47.958;21.780;2023-08-30T00:15:58;10.95;;;5.62;;
63975;SDS011;50167;47.958;21.780;2023-08-30T00:18:25;10.28;;;6.12;;
63975;SDS011;50167;47.958;21.780;2023-08-30T00:20:51;13.45;;;6.62;;
63975;SDS011;50167;47.958;21.780;2023-08-30T00:23:17;16.60;;;7.03;;
63975;SDS011;50167;47.958;21.780;2023-08-30T00:25:43;9.88;;;5.97;;
63975;SDS011;50167;47.958;21.780;2023-08-30T00:28:09;7.90;;;5.87;;
63975;SDS011;50167;47.958;21.780;2023-08-30T00:30:36;8.93;;;6.25;;
63975;SDS011;50167;47.958;21.780;2023-08-30T00:33:02;11.40;;;5.55;;
63975;SDS011;50167;47.958;21.780;2023-08-30T00:35:29;12.43;;;6.00;;
63975;SDS011;50167;47.958;21.780;2023-08-30T00:37:55;15.20;;;6.97;;
63975;SDS011;50167;47.958;21.780;2023-08-30T00:40:25;11.08;;;5.90;;
63975;SDS011;50167;47.958;21.780;2023-08-30T00:42:51;7.42;;;5.90;;
63975;SDS011;50167;47.958;21.780;2023-08-30T00:45:18;11.68;;;5.58;;
63975;SDS011;50167;47.958;21.780;2023-08-30T00:47:44;12.47;;;6.35;;
63975;SDS011;50167;47.958;21.780;2023-08-30T00:50:11;10.43;;;5.80;;
63975;SDS011;50167;47.958;21.780;2023-08-30T00:52:38;12.00;;;5.95;;
63975;SDS011;50167;47.958;21.780;2023-08-30T00:55:04;11.45;;;7.22;;
63975;SDS011;50167;47.958;21.780;2023-08-30T00:57:32;15.80;;;6.10;;
63975;SDS011;50167;47.958;21.780;2023-08-30T00:59:59;20.32;;;6.30;;
63975;SDS011;50167;47.958;21.780;2023-08-30T01:02:28;18.02;;;5.25;;
63975;SDS011;50167;47.958;21.780;2023-08-30T01:04:55;8.35;;;5.70;;
63975;SDS011;50167;47.958;21.780;2023-08-30T01:07:23;6.17;;;4.90;;
63975;SDS011;50167;47.958;21.780;2023-08-30T01:09:49;13.62;;;6.60;;
63975;SDS011;50167;47.958;21.780;2023-08-30T01:12:17;7.87;;;5.65;;
63975;SDS011;50167;47.958;21.780;2023-08-30T01:14:58;13.72;;;6.97;;
63975;SDS011;50167;47.958;21.780;2023-08-30T01:17:27;15.68;;;6.95;;
63975;SDS011;50167;47.958;21.780;2023-08-30T01:19:58;8.63;;;5.53;;
63975;SDS011;50167;47.958;21.780;2023-08-30T01:28:26;9.83;;;6.05;;
63975;SDS011;50167;47.958;21.780;2023-08-30T01:30:56;6.97;;;5.60;;
63975;SDS011;50167;47.958;21.780;2023-08-30T01:33:25;13.40;;;7.73;;
63975;SDS011;50167;47.958;21.780;2023-08-30T01:35:57;17.82;;;6.12;;
63975;SDS011;50167;47.958;21.780;2023-08-30T01:38:26;9.23;;;4.97;;
63975;SDS011;50167;47.958;21.780;2023-08-30T01:40:55;9.63;;;6.42;;
63975;SDS011;50167;47.958;21.780;2023-08-30T01:45:53;12.60;;;6.70;;
63975;SDS011;50167;47.958;21.780;2023-08-30T01:48:23;17.45;;;7.00;;
63975;SDS011;50167;47.958;21.780;2023-08-30T01:50:51;14.00;;;6.12;;
63975;SDS011;50167;47.958;21.780;2023-08-30T01:53:20;13.13;;;6.10;;
63975;SDS011;50167;47.958;21.780;2023-08-30T01:55:47;7.90;;;5.50;;
63975;SDS011;50167;47.958;21.780;2023-08-30T01:58:14;9.80;;;5.40;;
63975;SDS011;50167;47.958;21.780;2023-08-30T02:00:40;8.38;;;5.20;;
63975;SDS011;50167;47.958;21.780;2023-08-30T02:03:07;19.67;;;5.67;;
63975;SDS011;50167;47.958;21.780;2023-08-30T02:08:49;8.25;;;5.25;;
63975;SDS011;50167;47.958;21.780;2023-08-30T02:11:22;9.83;;;5.78;;
63975;SDS011;50167;47.958;21.780;2023-08-30T02:13:52;8.23;;;6.60;;
63975;SDS011;50167;47.958;21.780;2023-08-30T02:16:20;10.08;;;5.87;;
63975;SDS011;50167;47.958;21.780;2023-08-30T02:18:48;10.43;;;5.30;;
63975;SDS011;50167;47.958;21.780;2023-08-30T02:21:15;11.18;;;5.67;;
63975;SDS011;50167;47.958;21.780;2023-08-30T02:23:42;14.55;;;5.53;;
63975;SDS011;50167;47.958;21.780;2023-08-30T02:26:08;14.10;;;6.08;;
63975;SDS011;50167;47.958;21.780;2023-08-30T02:28:34;12.55;;;6.40;;
63975;SDS011;50167;47.958;21.780;2023-08-30T02:31:00;12.40;;;6.00;;
63975;SDS011;50167;47.958;21.780;2023-08-30T02:33:27;11.90;;;5.47;;
63975;SDS011;50167;47.958;21.780;2023-08-30T02:35:54;10.72;;;6.00;;
63975;SDS011;50167;47.958;21.780;2023-08-30T02:38:20;8.95;;;5.47;;
63975;SDS011;50167;47.958;21.780;2023-08-30T02:40:46;18.05;;;6.37;;
63975;SDS011;50167;47.958;21.780;2023-08-30T02:43:13;13.72;;;5.58;;
63975;SDS011;50167;47.958;21.780;2023-08-30T02:45:40;9.13;;;5.65;;
63975;SDS011;50167;47.958;21.780;2023-08-30T02:48:06;9.68;;;6.10;;
63975;SDS011;50167;47.958;21.780;2023-08-30T02:50:32;14.70;;;5.97;;
63975;SDS011;50167;47.958;21.780;2023-08-30T02:52:58;16.45;;;6.53;;
63975;SDS011;50167;47.958;21.780;2023-08-30T02:55:26;11.05;;;6.33;;
63975;SDS011;50167;47.958;21.780;2023-08-30T02:57:52;9.98;;;6.28;;
63975;SDS011;50167;47.958;21.780;2023-08-30T03:00:18;13.35;;;6.22;;
63975;SDS011;50167;47.958;21.780;2023-08-30T03:02:44;12.93;;;5.92;;
63975;SDS011;50167;47.958;21.780;2023-08-30T03:05:10;14.23;;;6.35;;
63975;SDS011;50167;47.958;21.780;2023-08-30T03:07:37;13.13;;;6.90;;
63975;SDS011;50167;47.958;21.780;2023-08-30T03:10:03;13.88;;;6.12;;
63975;SDS011;50167;47.958;21.780;2023-08-30T03:12:31;15.43;;;7.00;;
63975;SDS011;50167;47.958;21.780;2023-08-30T03:14:58;12.47;;;6.00;;
63975;SDS011;50167;47.958;21.780;2023-08-30T03:17:24;12.65;;;6.83;;
63975;SDS011;50167;47.958;21.780;2023-08-30T03:19:51;12.20;;;6.15;;
63975;SDS011;50167;47.958;21.780;2023-08-30T03:22:21;13.35;;;6.45;;
63975;SDS011;50167;47.958;21.780;2023-08-30T03:24:47;7.53;;;6.12;;
63975;SDS011;50167;47.958;21.780;2023-08-30T03:27:19;13.58;;;5.85;;
63975;SDS011;50167;47.958;21.780;2023-08-30T03:29:45;15.43;;;6.90;;
63975;SDS011;50167;47.958;21.780;2023-08-30T03:32:14;8.65;;;6.87;;
63975;SDS011;50167;47.958;21.780;2023-08-30T03:34:46;12.37;;;7.67;;
63975;SDS011;50167;47.958;21.780;2023-08-30T03:37:16;23.55;;;8.33;;
63975;SDS011;50167;47.958;21.780;2023-08-30T03:39:43;11.20;;;7.72;;
63975;SDS011;50167;47.958;21.780;2023-08-30T03:42:09;10.23;;;6.45;;
63975;SDS011;50167;47.958;21.780;2023-08-30T03:44:35;11.28;;;6.10;;
63975;SDS011;50167;47.958;21.780;2023-08-30T03:47:04;20.20;;;7.40;;
63975;SDS011;50167;47.958;21.780;2023-08-30T03:49:30;14.85;;;6.50;;
63975;SDS011;50167;47.958;21.780;2023-08-30T03:51:56;12.30;;;6.42;;
63975;SDS011;50167;47.958;21.780;2023-08-30T03:54:23;12.23;;;7.03;;
63975;SDS011;50167;47.958;21.780;2023-08-30T03:56:49;13.98;;;7.45;;
63975;SDS011;50167;47.958;21.780;2023-08-30T03:59:15;14.25;;;7.55;;
63975;SDS011;50167;47.958;21.780;2023-08-30T04:01:41;23.02;;;7.60;;
63975;SDS011;50167;47.958;21.780;2023-08-30T04:04:07;13.18;;;7.37;;
63975;SDS011;50167;47.958;21.780;2023-08-30T04:06:34;8.80;;;6.50;;
63975;SDS011;50167;47.958;21.780;2023-08-30T04:09:00;17.67;;;7.55;;
63975;SDS011;50167;47.958;21.780;2023-08-30T04:11:26;9.45;;;6.78;;
63975;SDS011;50167;47.958;21.780;2023-08-30T04:13:52;11.88;;;6.60;;
63975;SDS011;50167;47.958;21.780;2023-08-30T04:16:18;12.63;;;6.55;;
63975;SDS011;50167;47.958;21.780;2023-08-30T04:18:44;11.28;;;6.75;;
63975;SDS011;50167;47.958;21.780;2023-08-30T04:21:10;12.98;;;7.25;;
63975;SDS011;50167;47.958;21.780;2023-08-30T04:23:36;12.93;;;6.67;;
63975;SDS011;50167;47.958;21.780;2023-08-30T04:26:03;12.55;;;7.33;;
63975;SDS011;50167;47.958;21.780;2023-08-30T04:28:29;13.18;;;6.60;;
63975;SDS011;50167;47.958;21.780;2023-08-30T04:30:55;15.43;;;7.58;;
63975;SDS011;50167;47.958;21.780;2023-08-30T04:33:22;15.18;;;7.67;;
63975;SDS011;50167;47.958;21.780;2023-08-30T04:35:54;19.45;;;7.37;;
63975;SDS011;50167;47.958;21.780;2023-08-30T04:38:19;11.93;;;6.72;;
63975;SDS011;50167;47.958;21.780;2023-08-30T04:40:47;12.07;;;7.28;;
63975;SDS011;50167;47.958;21.780;2023-08-30T04:43:14;11.08;;;6.28;;
63975;SDS011;50167;47.958;21.780;2023-08-30T04:45:40;13.72;;;6.45;;
63975;SDS011;50167;47.958;21.780;2023-08-30T04:48:06;11.73;;;6.40;;
63975;SDS011;50167;47.958;21.780;2023-08-30T04:50:33;14.05;;;6.78;;
63975;SDS011;50167;47.958;21.780;2023-08-30T04:52:59;12.03;;;7.55;;
63975;SDS011;50167;47.958;21.780;2023-08-30T04:55:28;11.65;;;6.90;;
63975;SDS011;50167;47.958;21.780;2023-08-30T04:57:55;14.75;;;7.42;;
63975;SDS011;50167;47.958;21.780;2023-08-30T05:00:22;14.43;;;7.78;;
63975;SDS011;50167;47.958;21.780;2023-08-30T05:02:48;7.92;;;6.10;;
63975;SDS011;50167;47.958;21.780;2023-08-30T05:05:14;16.27;;;6.92;;
63975;SDS011;50167;47.958;21.780;2023-08-30T05:07:41;9.18;;;5.85;;
63975;SDS011;50167;47.958;21.780;2023-08-30T05:10:07;14.45;;;7.37;;
63975;SDS011;50167;47.958;21.780;2023-08-30T05:12:34;16.02;;;6.33;;
63975;SDS011;50167;47.958;21.780;2023-08-30T05:15:01;10.95;;;6.78;;
63975;SDS011;50167;47.958;21.780;2023-08-30T05:17:29;7.08;;;5.45;;
63975;SDS011;50167;47.958;21.780;2023-08-30T05:19:55;13.35;;;6.90;;
63975;SDS011;50167;47.958;21.780;2023-08-30T05:22:21;11.10;;;7.60;;
63975;SDS011;50167;47.958;21.780;2023-08-30T05:24:48;11.68;;;7.17;;
63975;SDS011;50167;47.958;21.780;2023-08-30T05:27:14;11.35;;;7.58;;
63975;SDS011;50167;47.958;21.780;2023-08-30T05:29:42;13.28;;;8.03;;
63975;SDS011;50167;47.958;21.780;2023-08-30T05:32:08;10.28;;;7.15;;
63975;SDS011;50167;47.958;21.780;2023-08-30T05:34:34;8.48;;;5.75;;
63975;SDS011;50167;47.958;21.780;2023-08-30T05:37:01;9.58;;;7.37;;
63975;SDS011;50167;47.958;21.780;2023-08-30T05:39:28;14.95;;;6.87;;
63975;SDS011;50167;47.958;21.780;2023-08-30T05:41:54;9.80;;;5.80;;
63975;SDS011;50167;47.958;21.780;2023-08-30T05:44:20;14.18;;;7.12;;
63975;SDS011;50167;47.958;21.780;2023-08-30T05:46:46;10.15;;;5.85;;
63975;SDS011;50167;47.958;21.780;2023-08-30T05:49:13;14.05;;;6.22;;
63975;SDS011;50167;47.958;21.780;2023-08-30T05:51:39;16.05;;;6.72;;
63975;SDS011;50167;47.958;21.780;2023-08-30T05:54:05;16.17;;;6.75;;
63975;SDS011;50167;47.958;21.780;2023-08-30T05:56:32;9.60;;;6.08;;
63975;SDS011;50167;47.958;21.780;2023-08-30T05:58:58;9.65;;;6.12;;
63975;SDS011;50167;47.958;21.780;2023-08-30T06:01:25;7.58;;;6.03;;
63975;SDS011;50167;47.958;21.780;2023-08-30T06:03:51;10.93;;;7.22;;
63975;SDS011;50167;47.958;21.780;2023-08-30T06:06:18;10.43;;;6.22;;
63975;SDS011;50167;47.958;21.780;2023-08-30T06:08:44;17.35;;;6.60;;
63975;SDS011;50167;47.958;21.780;2023-08-30T06:11:10;12.10;;;6.12;;
63975;SDS011;50167;47.958;21.780;2023-08-30T06:13:37;9.53;;;6.62;;
63975;SDS011;50167;47.958;21.780;2023-08-30T06:16:03;10.40;;;6.42;;
63975;SDS011;50167;47.958;21.780;2023-08-30T06:18:29;10.08;;;7.12;;
63975;SDS011;50167;47.958;21.780;2023-08-30T06:20:58;11.50;;;6.50;;
63975;SDS011;50167;47.958;21.780;2023-08-30T06:23:26;14.18;;;6.95;;
63975;SDS011;50167;47.958;21.780;2023-08-30T06:25:53;12.03;;;6.97;;
63975;SDS011;50167;47.958;21.780;2023-08-30T06:28:21;12.10;;;6.80;;
63975;SDS011;50167;47.958;21.780;2023-08-30T06:30:47;11.45;;;6.92;;
63975;SDS011;50167;47.958;21.780;2023-08-30T06:33:13;14.50;;;6.15;;
63975;SDS011;50167;47.958;21.780;2023-08-30T06:35:40;16.93;;;6.87;;
63975;SDS011;50167;47.958;21.780;2023-08-30T06:38:10;12.75;;;6.75;;
63975;SDS011;50167;47.958;21.780;2023-08-30T06:40:36;14.30;;;7.65;;
63975;SDS011;50167;47.958;21.780;2023-08-30T06:43:04;14.73;;;8.25;;
63975;SDS011;50167;47.958;21.780;2023-08-30T06:45:30;9.55;;;6.70;;
63975;SDS011;50167;47.958;21.780;2023-08-30T06:47:56;15.35;;;7.67;;
63975;SDS011;50167;47.958;21.780;2023-08-30T06:50:23;7.35;;;5.37;;
63975;SDS011;50167;47.958;21.780;2023-08-30T06:52:49;14.28;;;6.83;;
63975;SDS011;50167;47.958;21.780;2023-08-30T06:55:15;18.07;;;6.53;;
63975;SDS011;50167;47.958;21.780;2023-08-30T06:57:47;8.43;;;5.12;;
63975;SDS011;50167;47.958;21.780;2023-08-30T07:00:13;8.50;;;5.22;;
63975;SDS011;50167;47.958;21.780;2023-08-30T07:02:40;11.43;;;5.25;;
63975;SDS011;50167;47.958;21.780;2023-08-30T07:05:08;9.95;;;5.45;;
63975;SDS011;50167;47.958;21.780;2023-08-30T07:07:34;7.62;;;6.00;;
63975;SDS011;50167;47.958;21.780;2023-08-30T07:10:00;6.87;;;4.78;;
63975;SDS011;50167;47.958;21.780;2023-08-30T07:12:28;9.83;;;4.75;;
63975;SDS011;50167;47.958;21.780;2023-08-30T07:14:54;10.15;;;5.20;;
63975;SDS011;50167;47.958;21.780;2023-08-30T07:17:21;11.65;;;5.45;;
63975;SDS011;50167;47.958;21.780;2023-08-30T07:19:47;9.30;;;5.40;;
63975;SDS011;50167;47.958;21.780;2023-08-30T07:22:14;8.30;;;4.67;;
63975;SDS011;50167;47.958;21.780;2023-08-30T07:24:42;8.33;;;4.60;;
63975;SDS011;50167;47.958;21.780;2023-08-30T07:27:10;8.33;;;5.25;;
63975;SDS011;50167;47.958;21.780;2023-08-30T07:29:38;10.23;;;4.87;;
63975;SDS011;50167;47.958;21.780;2023-08-30T07:32:09;7.72;;;5.78;;
63975;SDS011;50167;47.958;21.780;2023-08-30T07:34:35;8.63;;;5.12;;
63975;SDS011;50167;47.958;21.780;2023-08-30T07:37:01;7.83;;;5.72;;
63975;SDS011;50167;47.958;21.780;2023-08-30T07:39:28;15.08;;;5.45;;
63975;SDS011;50167;47.958;21.780;2023-08-30T07:41:54;10.10;;;5.08;;
63975;SDS011;50167;47.958;21.780;2023-08-30T07:44:20;7.03;;;5.15;;
63975;SDS011;50167;47.958;21.780;2023-08-30T07:46:46;10.50;;;5.42;;
63975;SDS011;50167;47.958;21.780;2023-08-30T07:49:13;9.00;;;5.12;;
63975;SDS011;50167;47.958;21.780;2023-08-30T07:51:39;10.13;;;5.40;;
63975;SDS011;50167;47.958;21.780;2023-08-30T07:54:06;11.05;;;5.03;;
63975;SDS011;50167;47.958;21.780;2023-08-30T07:56:32;14.00;;;3.42;;
63975;SDS011;50167;47.958;21.780;2023-08-30T07:58:58;5.53;;;3.20;;
63975;SDS011;50167;47.958;21.780;2023-08-30T08:01:25;6.80;;;3.62;;
63975;SDS011;50167;47.958;21.780;2023-08-30T08:03:51;8.90;;;4.08;;
63975;SDS011;50167;47.958;21.780;2023-08-30T08:06:17;9.10;;;4.08;;
63975;SDS011;50167;47.958;21.780;2023-08-30T08:08:44;5.03;;;4.12;;
63975;SDS011;50167;47.958;21.780;2023-08-30T08:16:20;4.65;;;3.22;;
63975;SDS011;50167;47.958;21.780;2023-08-30T08:18:46;4.47;;;3.30;;
63975;SDS011;50167;47.958;21.780;2023-08-30T08:21:13;7.25;;;4.55;;
63975;SDS011;50167;47.958;21.780;2023-08-30T08:23:39;9.33;;;4.72;;
63975;SDS011;50167;47.958;21.780;2023-08-30T08:26:05;10.53;;;4.03;;
63975;SDS011;50167;47.958;21.780;2023-08-30T08:28:33;10.63;;;4.15;;
63975;SDS011;50167;47.958;21.780;2023-08-30T08:31:00;5.20;;;4.33;;
63975;SDS011;50167;47.958;21.780;2023-08-30T08:33:26;7.30;;;3.70;;
63975;SDS011;50167;47.958;21.780;2023-08-30T08:35:52;6.55;;;4.12;;
63975;SDS011;50167;47.958;21.780;2023-08-30T08:38:18;7.65;;;4.60;;
63975;SDS011;50167;47.958;21.780;2023-08-30T08:40:45;6.67;;;3.67;;
63975;SDS011;50167;47.958;21.780;2023-08-30T08:43:11;7.28;;;5.05;;
63975;SDS011;50167;47.958;21.780;2023-08-30T08:45:41;9.55;;;3.58;;
63975;SDS011;50167;47.958;21.780;2023-08-30T08:48:08;9.10;;;4.20;;
63975;SDS011;50167;47.958;21.780;2023-08-30T08:50:36;7.55;;;4.42;;
63975;SDS011;50167;47.958;21.780;2023-08-30T08:53:03;7.75;;;4.40;;
63975;SDS011;50167;47.958;21.780;2023-08-30T08:55:30;7.40;;;4.78;;
63975;SDS011;50167;47.958;21.780;2023-08-30T08:58:06;8.25;;;3.98;;
63975;SDS011;50167;47.958;21.780;2023-08-30T09:00:32;5.92;;;4.30;;
63975;SDS011;50167;47.958;21.780;2023-08-30T09:02:59;8.10;;;4.30;;
63975;SDS011;50167;47.958;21.780;2023-08-30T09:05:26;12.07;;;5.75;;
63975;SDS011;50167;47.958;21.780;2023-08-30T09:07:54;9.35;;;4.03;;
63975;SDS011;50167;47.958;21.780;2023-08-30T09:10:21;6.70;;;4.00;;
63975;SDS011;50167;47.958;21.780;2023-08-30T09:12:47;8.35;;;4.37;;
63975;SDS011;50167;47.958;21.780;2023-08-30T09:15:14;5.87;;;4.20;;
63975;SDS011;50167;47.958;21.780;2023-08-30T09:17:40;6.40;;;4.47;;
63975;SDS011;50167;47.958;21.780;2023-08-30T09:22:38;7.47;;;4.58;;
63975;SDS011;50167;47.958;21.780;2023-08-30T09:25:09;8.40;;;4.20;;
63975;SDS011;50167;47.958;21.780;2023-08-30T09:27:37;4.92;;;3.70;;
63975;SDS011;50167;47.958;21.780;2023-08-30T09:30:07;5.28;;;3.80;;
63975;SDS011;50167;47.958;21.780;2023-08-30T09:32:39;6.72;;;3.35;;
63975;SDS011;50167;47.958;21.780;2023-08-30T09:35:07;7.45;;;4.22;;
63975;SDS011;50167;47.958;21.780;2023-08-30T09:37:34;6.50;;;3.77;;
63975;SDS011;50167;47.958;21.780;2023-08-30T09:40:01;6.53;;;3.92;;
63975;SDS011;50167;47.958;21.780;2023-08-30T09:42:27;6.10;;;3.92;;
63975;SDS011;50167;47.958;21.780;2023-08-30T09:44:54;9.08;;;3.95;;
63975;SDS011;50167;47.958;21.780;2023-08-30T09:47:23;9.65;;;3.37;;
63975;SDS011;50167;47.958;21.780;2023-08-30T09:49:54;5.20;;;3.92;;
63975;SDS011;50167;47.958;21.780;2023-08-30T09:52:23;10.20;;;4.50;;
63975;SDS011;50167;47.958;21.780;2023-08-30T09:54:52;7.72;;;4.20;;
63975;SDS011;50167;47.958;21.780;2023-08-30T09:57:20;4.80;;;3.55;;
63975;SDS011;50167;47.958;21.780;2023-08-30T09:59:47;6.83;;;4.60;;
63975;SDS011;50167;47.958;21.780;2023-08-30T10:02:15;7.55;;;3.65;;
63975;SDS011;50167;47.958;21.780;2023-08-30T10:04:42;18.30;;;4.83;;
63975;SDS011;50167;47.958;21.780;2023-08-30T10:07:10;5.33;;;3.70;;
63975;SDS011;50167;47.958;21.780;2023-08-30T10:09:38;4.40;;;3.85;;
63975;SDS011;50167;47.958;21.780;2023-08-30T10:12:07;7.35;;;4.05;;
63975;SDS011;50167;47.958;21.780;2023-08-30T10:14:36;5.03;;;4.47;;
63975;SDS011;50167;47.958;21.780;2023-08-30T10:17:04;7.17;;;3.72;;
63975;SDS011;50167;47.958;21.780;2023-08-30T10:22:03;7.95;;;4.10;;
63975;SDS011;50167;47.958;21.780;2023-08-30T10:24:40;6.55;;;4.60;;
63975;SDS011;50167;47.958;21.780;2023-08-30T10:27:13;6.60;;;4.33;;
63975;SDS011;50167;47.958;21.780;2023-08-30T10:29:42;11.85;;;4.42;;
63975;SDS011;50167;47.958;21.780;2023-08-30T10:32:09;8.10;;;4.25;;
63975;SDS011;50167;47.958;21.780;2023-08-30T10:34:36;11.55;;;4.65;;
63975;SDS011;50167;47.958;21.780;2023-08-30T10:37:05;8.63;;;4.35;;
63975;SDS011;50167;47.958;21.780;2023-08-30T10:42:34;15.50;;;4.67;;
63975;SDS011;50167;47.958;21.780;2023-08-30T10:45:01;15.68;;;4.87;;
63975;SDS011;50167;47.958;21.780;2023-08-30T10:47:36;7.33;;;5.65;;
63975;SDS011;50167;47.958;21.780;2023-08-30T10:50:05;7.60;;;4.60;;
63975;SDS011;50167;47.958;21.780;2023-08-30T10:52:33;33.23;;;5.95;;
63975;SDS011;50167;47.958;21.780;2023-08-30T10:55:13;11.08;;;5.05;;
63975;SDS011;50167;47.958;21.780;2023-08-30T10:57:41;5.90;;;4.58;;
63975;SDS011;50167;47.958;21.780;2023-08-30T11:00:11;6.05;;;4.83;;
63975;SDS011;50167;47.958;21.780;2023-08-30T11:02:48;8.65;;;4.60;;
63975;SDS011;50167;47.958;21.780;2023-08-30T11:05:21;6.25;;;5.12;;
63975;SDS011;50167;47.958;21.780;2023-08-30T11:08:04;7.53;;;4.85;;
63975;SDS011;50167;47.958;21.780;2023-08-30T11:10:36;6.00;;;4.17;;
63975;SDS011;50167;47.958;21.780;2023-08-30T11:13:02;11.57;;;4.58;;
63975;SDS011;50167;47.958;21.780;2023-08-30T11:15:28;13.58;;;4.92;;
63975;SDS011;50167;47.958;21.780;2023-08-30T11:18:01;8.00;;;5.15;;
63975;SDS011;50167;47.958;21.780;2023-08-30T11:20:28;8.88;;;4.65;;
63975;SDS011;50167;47.958;21.780;2023-08-30T11:22:54;7.17;;;4.37;;
63975;SDS011;50167;47.958;21.780;2023-08-30T11:25:21;7.30;;;5.45;;
63975;SDS011;50167;47.958;21.780;2023-08-30T11:27:47;8.93;;;5.58;;
63975;SDS011;50167;47.958;21.780;2023-08-30T11:30:14;8.58;;;5.55;;
63975;SDS011;50167;47.958;21.780;2023-08-30T11:32:41;10.72;;;5.17;;
63975;SDS011;50167;47.958;21.780;2023-08-30T11:35:10;10.68;;;5.22;;
63975;SDS011;50167;47.958;21.780;2023-08-30T11:37:37;11.57;;;5.15;;
63975;SDS011;50167;47.958;21.780;2023-08-30T11:40:05;8.98;;;4.75;;
63975;SDS011;50167;47.958;21.780;2023-08-30T11:42:33;6.53;;;4.90;;
63975;SDS011;50167;47.958;21.780;2023-08-30T11:44:59;6.22;;;4.53;;
63975;SDS011;50167;47.958;21.780;2023-08-30T11:47:27;9.53;;;5.30;;
63975;SDS011;50167;47.958;21.780;2023-08-30T11:49:54;5.03;;;4.47;;
63975;SDS011;50167;47.958;21.780;2023-08-30T11:52:23;6.97;;;4.90;;
63975;SDS011;50167;47.958;21.780;2023-08-30T11:54:51;8.33;;;5.17;;
63975;SDS011;50167;47.958;21.780;2023-08-30T11:57:17;7.95;;;5.17;;
63975;SDS011;50167;47.958;21.780;2023-08-30T11:59:44;6.92;;;4.60;;
63975;SDS011;50167;47.958;21.780;2023-08-30T12:02:13;9.08;;;5.12;;
63975;SDS011;50167;47.958;21.780;2023-08-30T12:04:42;11.60;;;5.30;;
63975;SDS011;50167;47.958;21.780;2023-08-30T12:07:20;10.82;;;5.47;;
63975;SDS011;50167;47.958;21.780;2023-08-30T12:09:48;10.78;;;4.92;;
63975;SDS011;50167;47.958;21.780;2023-08-30T12:12:15;6.37;;;5.62;;
63975;SDS011;50167;47.958;21.780;2023-08-30T12:14:41;10.45;;;5.60;;
63975;SDS011;50167;47.958;21.780;2023-08-30T12:17:08;8.18;;;5.10;;
63975;SDS011;50167;47.958;21.780;2023-08-30T12:19:36;8.55;;;5.05;;
63975;SDS011;50167;47.958;21.780;2023-08-30T12:22:03;10.95;;;6.30;;
63975;SDS011;50167;47.958;21.780;2023-08-30T12:24:43;10.40;;;6.03;;
63975;SDS011;50167;47.958;21.780;2023-08-30T12:29:36;8.00;;;6.03;;
63975;SDS011;50167;47.958;21.780;2023-08-30T12:32:03;10.23;;;5.90;;
63975;SDS011;50167;47.958;21.780;2023-08-30T12:34:29;12.85;;;6.45;;
63975;SDS011;50167;47.958;21.780;2023-08-30T12:36:56;12.25;;;6.33;;
63975;SDS011;50167;47.958;21.780;2023-08-30T12:39:22;9.93;;;5.50;;
63975;SDS011;50167;47.958;21.780;2023-08-30T12:41:49;12.90;;;5.83;;
63975;SDS011;50167;47.958;21.780;2023-08-30T12:44:15;8.68;;;6.22;;
63975;SDS011;50167;47.958;21.780;2023-08-30T12:46:41;12.93;;;5.67;;
63975;SDS011;50167;47.958;21.780;2023-08-30T12:49:07;8.58;;;5.85;;
63975;SDS011;50167;47.958;21.780;2023-08-30T12:51:33;11.90;;;5.50;;
63975;SDS011;50167;47.958;21.780;2023-08-30T12:53:59;7.35;;;5.37;;
63975;SDS011;50167;47.958;21.780;2023-08-30T12:56:26;12.63;;;7.40;;
63975;SDS011;50167;47.958;21.780;2023-08-30T12:58:52;9.08;;;5.70;;
63975;SDS011;50167;47.958;21.780;2023-08-30T13:01:18;6.83;;;5.33;;
63975;SDS011;50167;47.958;21.780;2023-08-30T13:03:46;12.80;;;5.72;;
63975;SDS011;50167;47.958;21.780;2023-08-30T13:06:13;7.72;;;5.10;;
63975;SDS011;50167;47.958;21.780;2023-08-30T13:08:39;6.37;;;5.35;;
63975;SDS011;50167;47.958;21.780;2023-08-30T13:11:05;9.65;;;5.45;;
63975;SDS011;50167;47.958;21.780;2023-08-30T13:13:32;12.35;;;5.47;;
63975;SDS011;50167;47.958;21.780;2023-08-30T13:15:58;8.70;;;5.37;;
63975;SDS011;50167;47.958;21.780;2023-08-30T13:18:24;9.18;;;5.08;;
63975;SDS011;50167;47.958;21.780;2023-08-30T13:20:53;9.35;;;5.25;;
63975;SDS011;50167;47.958;21.780;2023-08-30T13:23:21;8.70;;;5.60;;
63975;SDS011;50167;47.958;21.780;2023-08-30T13:25:47;9.38;;;5.80;;
63975;SDS011;50167;47.958;21.780;2023-08-30T13:28:14;10.72;;;5.50;;
63975;SDS011;50167;47.958;21.780;2023-08-30T13:30:48;10.32;;;5.53;;
63975;SDS011;50167;47.958;21.780;2023-08-30T13:33:12;9.43;;;5.92;;
63975;SDS011;50167;47.958;21.780;2023-08-30T13:35:39;14.18;;;5.22;;
63975;SDS011;50167;47.958;21.780;2023-08-30T13:38:05;9.18;;;5.35;;
63975;SDS011;50167;47.958;21.780;2023-08-30T13:40:31;9.43;;;5.72;;
63975;SDS011;50167;47.958;21.780;2023-08-30T13:42:57;23.67;;;7.45;;
63975;SDS011;50167;47.958;21.780;2023-08-30T13:45:24;24.43;;;6.90;;
63975;SDS011;50167;47.958;21.780;2023-08-30T13:47:50;8.85;;;5.92;;
63975;SDS011;50167;47.958;21.780;2023-08-30T13:50:18;20.17;;;6.90;;
63975;SDS011;50167;47.958;21.780;2023-08-30T13:52:44;17.80;;;7.45;;
63975;SDS011;50167;47.958;21.780;2023-08-30T13:55:11;15.40;;;6.87;;
63975;SDS011;50167;47.958;21.780;2023-08-30T13:57:37;16.87;;;6.22;;
63975;SDS011;50167;47.958;21.780;2023-08-30T14:00:03;17.82;;;6.90;;
63975;SDS011;50167;47.958;21.780;2023-08-30T14:02:35;12.25;;;6.03;;
63975;SDS011;50167;47.958;21.780;2023-08-30T14:05:02;7.60;;;5.80;;
63975;SDS011;50167;47.958;21.780;2023-08-30T14:07:28;9.68;;;7.00;;
63975;SDS011;50167;47.958;21.780;2023-08-30T14:09:54;13.05;;;5.85;;
63975;SDS011;50167;47.958;21.780;2023-08-30T14:12:21;11.10;;;6.37;;
63975;SDS011;50167;47.958;21.780;2023-08-30T14:14:47;8.38;;;5.25;;
63975;SDS011;50167;47.958;21.780;2023-08-30T14:17:14;9.43;;;5.00;;
63975;SDS011;50167;47.958;21.780;2023-08-30T14:19:40;8.90;;;5.70;;
63975;SDS011;50167;47.958;21.780;2023-08-30T14:22:06;11.70;;;5.42;;
63975;SDS011;50167;47.958;21.780;2023-08-30T14:24:32;12.40;;;6.03;;
63975;SDS011;50167;47.958;21.780;2023-08-30T14:27:01;8.33;;;5.97;;
63975;SDS011;50167;47.958;21.780;2023-08-30T14:29:29;17.20;;;7.22;;
63975;SDS011;50167;47.958;21.780;2023-08-30T14:31:55;22.13;;;6.55;;
63975;SDS011;50167;47.958;21.780;2023-08-30T14:34:22;15.53;;;5.72;;
63975;SDS011;50167;47.958;21.780;2023-08-30T14:36:48;16.23;;;5.87;;
63975;SDS011;50167;47.958;21.780;2023-08-30T14:39:14;15.80;;;5.45;;
63975;SDS011;50167;47.958;21.780;2023-08-30T14:41:41;20.57;;;7.37;;
63975;SDS011;50167;47.958;21.780;2023-08-30T14:44:07;9.75;;;5.00;;
63975;SDS011;50167;47.958;21.780;2023-08-30T14:46:33;15.18;;;5.17;;
63975;SDS011;50167;47.958;21.780;2023-08-30T14:49:02;7.97;;;4.17;;
63975;SDS011;50167;47.958;21.780;2023-08-30T14:51:28;11.22;;;5.83;;
63975;SDS011;50167;47.958;21.780;2023-08-30T14:53:54;10.10;;;5.15;;
63975;SDS011;50167;47.958;21.780;2023-08-30T14:56:20;14.05;;;4.87;;